Time;durP1;ratioP1;P1;durP2;ratioP2;P2;SDS_P1;SDS_P2;PMS_P1;PMS_P2;Temp;Humidity;BMP_temperature;BMP_pressure;BME280_temperature;BME280_humidity;BME280_pressure;Samples;Min_cycle;Max_cycle;Signal;HPM_P1;HPM_P2
2022/03/10 00:00:12;;;;;;;11.83;2.33;;;21.40;50.70;;;;;;5053040;28;20271;-77
2022/03/10 00:02:42;;;;;;;7.00;1.87;;;21.60;51.60;;;;;;5045630;28;20176;-80
2022/03/10 00:05:21;;;;;;;7.73;2.10;;;21.80;50.60;;;;;;5054945;28;20183;-77
2022/03/10 00:07:49;;;;;;;10.07;1.90;;;21.60;51.00;;;;;;5037132;28;20195;-76
2022/03/10 00:10:16;;;;;;;8.77;2.27;;;21.30;51.40;;;;;;5030361;28;20181;-78
2022/03/10 00:12:50;;;;;;;9.33;1.93;;;21.30;51.60;;;;;;5032460;28;20212;-78
2022/03/10 00:15:23;;;;;;;9.40;2.27;;;21.60;50.50;;;;;;5038661;28;20540;-77
2022/03/10 00:17:51;;;;;;;8.73;1.97;;;21.70;49.50;;;;;;5037579;28;20187;-81
2022/03/10 00:20:20;;;;;;;6.67;1.93;;;21.60;49.50;;;;;;5041109;28;20234;-83
2022/03/10 00:22:49;;;;;;;11.47;2.63;;;21.80;50.10;;;;;;5044201;28;20191;-79
2022/03/10 00:25:18;;;;;;;11.07;2.40;;;22.10;49.60;;;;;;5047091;28;20173;-77
2022/03/10 00:27:46;;;;;;;10.90;2.20;;;22.00;49.80;;;;;;5033965;28;20246;-80
2022/03/10 00:30:15;;;;;;;11.93;2.03;;;21.60;50.40;;;;;;5021788;28;20521;-79
2022/03/10 00:32:47;;;;;;;11.57;2.70;;;21.90;50.70;;;;;;5036614;28;20620;-78
2022/03/10 00:35:23;;;;;;;12.90;2.77;;;22.10;50.70;;;;;;5030830;28;20581;-79
2022/03/10 00:37:51;;;;;;;9.00;2.63;;;21.90;51.20;;;;;;5023297;28;20648;-76
2022/03/10 00:40:19;;;;;;;11.27;2.63;;;21.50;51.60;;;;;;5027422;28;20181;-78
2022/03/10 00:42:47;;;;;;;10.77;2.93;;;21.10;51.50;;;;;;5020305;28;20170;-79
2022/03/10 00:45:16;;;;;;;15.63;3.00;;;21.20;51.80;;;;;;5037764;28;20176;-81
2022/03/10 00:47:47;;;;;;;12.47;3.27;;;21.80;50.80;;;;;;5037735;28;20651;-76
2022/03/10 00:50:15;;;;;;;13.30;2.83;;;22.10;49.60;;;;;;5035806;28;20215;-75
2022/03/10 00:52:48;;;;;;;11.83;2.20;;;22.20;49.60;;;;;;5037283;28;20216;-77
2022/03/10 00:55:18;;;;;;;11.30;2.30;;;22.30;48.80;;;;;;5036112;28;20260;-81
2022/03/10 00:57:46;;;;;;;6.63;2.00;;;22.60;48.90;;;;;;5038040;28;20519;-79
2022/03/10 01:00:14;;;;;;;8.80;2.30;;;22.70;48.40;;;;;;5033188;28;20230;-77
2022/03/10 01:02:42;;;;;;;12.30;3.20;;;22.90;47.10;;;;;;5026940;28;20184;-77
2022/03/10 01:05:10;;;;;;;7.83;1.83;;;22.80;48.30;;;;;;5022786;28;20197;-77
2022/03/10 01:07:38;;;;;;;8.30;2.50;;;22.90;47.30;;;;;;5054265;28;20694;-77
2022/03/10 01:10:07;;;;;;;14.90;2.00;;;22.90;46.90;;;;;;5057934;28;20176;-81
2022/03/10 01:12:35;;;;;;;8.50;2.20;;;22.80;48.80;;;;;;5053494;28;20226;-75
2022/03/10 01:15:03;;;;;;;8.27;2.40;;;22.90;47.50;;;;;;5053998;28;20164;-76
2022/03/10 01:17:31;;;;;;;6.73;1.97;;;23.10;47.60;;;;;;5054386;28;20180;-75
2022/03/10 01:19:58;;;;;;;9.83;2.80;;;22.80;48.70;;;;;;5054952;28;20660;-74
2022/03/10 01:22:27;;;;;;;9.10;2.23;;;22.80;48.80;;;;;;5053779;28;20180;-81
2022/03/10 01:24:54;;;;;;;12.00;2.40;;;22.90;48.20;;;;;;5055143;28;20180;-77
2022/03/10 01:27:22;;;;;;;9.70;2.00;;;23.00;48.20;;;;;;5055630;28;20605;-77
2022/03/10 01:29:49;;;;;;;8.53;2.20;;;22.50;46.80;;;;;;5051828;28;20685;-75
2022/03/10 01:32:16;;;;;;;15.30;2.67;;;22.80;47.40;;;;;;5054325;28;20282;-81
2022/03/10 01:34:44;;;;;;;14.97;2.70;;;23.10;47.70;;;;;;5055993;28;20179;-77
2022/03/10 01:37:11;;;;;;;8.93;2.30;;;23.30;47.20;;;;;;5055588;28;20195;-81
2022/03/10 01:39:38;;;;;;;12.17;1.97;;;23.20;47.30;;;;;;5056157;28;20190;-78
2022/03/10 01:42:06;;;;;;;7.53;1.83;;;23.20;46.70;;;;;;5048476;28;20275;-79
2022/03/10 01:44:37;;;;;;;9.17;2.17;;;23.40;47.60;;;;;;5050982;28;20178;-77
2022/03/10 01:47:10;;;;;;;12.00;5.33;;;23.50;46.10;;;;;;5048605;28;20210;-77
2022/03/10 01:49:38;;;;;;;7.47;2.17;;;23.70;46.10;;;;;;5049605;28;20184;-75
2022/03/10 01:52:06;;;;;;;10.37;2.90;;;23.70;46.00;;;;;;5050720;28;20246;-76
2022/03/10 01:54:34;;;;;;;8.03;2.23;;;23.60;46.20;;;;;;5035186;28;20184;-78
2022/03/10 01:57:04;;;;;;;8.50;1.90;;;23.60;45.60;;;;;;5044309;28;20183;-81
2022/03/10 01:59:32;;;;;;;12.77;2.50;;;23.80;45.20;;;;;;5038927;28;20730;-86
2022/03/10 02:02:00;;;;;;;7.23;1.97;;;23.80;45.30;;;;;;5037891;28;20184;-80
2022/03/10 02:04:27;;;;;;;10.73;2.10;;;23.80;45.40;;;;;;5047245;28;20586;-78
2022/03/10 02:06:55;;;;;;;9.57;2.20;;;23.80;44.70;;;;;;5051400;28;20231;-79
2022/03/10 02:12:10;;;;;;;13.30;5.70;;;24.10;47.30;;;;;;5070962;28;20237;-79
2022/03/10 02:17:22;;;;;;;7.80;2.10;;;24.20;45.70;;;;;;5073189;28;20181;-78
2022/03/10 02:19:56;;;;;;;14.53;2.90;;;24.20;45.00;;;;;;5052558;28;20180;-79
2022/03/10 02:22:25;;;;;;;12.33;2.20;;;24.30;45.50;;;;;;5053109;28;20168;-79
2022/03/10 02:24:53;;;;;;;10.73;2.07;;;24.30;45.40;;;;;;5032939;28;20204;-82
2022/03/10 02:27:26;;;;;;;9.47;1.90;;;24.40;44.50;;;;;;5032040;28;20550;-79
2022/03/10 02:29:57;;;;;;;7.20;1.90;;;24.30;44.80;;;;;;5033073;28;20242;-79
2022/03/10 02:32:24;;;;;;;7.83;2.20;;;24.40;45.20;;;;;;5033701;28;20629;-76
2022/03/10 02:34:52;;;;;;;10.23;1.70;;;24.50;44.90;;;;;;5044692;28;20224;-80
2022/03/10 02:37:21;;;;;;;12.93;2.57;;;24.80;45.10;;;;;;5052005;28;20233;-76
2022/03/10 02:39:48;;;;;;;9.00;1.97;;;24.70;44.50;;;;;;5051880;28;20234;-76
2022/03/10 02:42:16;;;;;;;5.53;1.73;;;24.40;43.90;;;;;;5052225;28;20180;-76
2022/03/10 02:44:47;;;;;;;9.77;2.50;;;24.60;44.40;;;;;;5049553;28;20188;-78
2022/03/10 02:47:15;;;;;;;8.20;2.40;;;24.80;43.50;;;;;;5043360;28;20518;-73
2022/03/10 02:49:43;;;;;;;8.67;2.00;;;25.10;42.60;;;;;;5049998;28;20196;-74
2022/03/10 02:52:11;;;;;;;11.63;2.27;;;25.20;42.40;;;;;;5051465;28;20306;-75
2022/03/10 02:54:38;;;;;;;9.97;2.37;;;25.30;40.80;;;;;;5048941;28;20260;-82
2022/03/10 02:57:06;;;;;;;7.00;1.87;;;25.30;41.50;;;;;;5050724;28;20262;-75
2022/03/10 02:59:33;;;;;;;10.90;1.97;;;25.50;41.00;;;;;;5049063;28;20188;-77
2022/03/10 03:02:02;;;;;;;7.63;2.33;;;25.20;41.30;;;;;;5048682;28;20203;-78
2022/03/10 03:04:29;;;;;;;6.60;1.97;;;24.90;42.00;;;;;;5045709;28;20322;-78
2022/03/10 03:06:57;;;;;;;7.97;1.77;;;25.20;42.50;;;;;;5051043;28;20235;-76
2022/03/10 03:09:24;;;;;;;13.17;2.43;;;25.50;42.80;;;;;;5048230;28;20267;-78
2022/03/10 03:11:52;;;;;;;8.20;2.00;;;25.70;41.60;;;;;;5048604;28;20223;-81
2022/03/10 03:14:23;;;;;;;9.50;2.40;;;25.80;40.60;;;;;;5049858;28;20257;-76
2022/03/10 03:16:57;;;;;;;8.33;2.60;;;25.50;41.20;;;;;;5050827;28;20191;-77
2022/03/10 03:19:25;;;;;;;8.13;2.37;;;25.60;41.70;;;;;;5042936;28;20202;-76
2022/03/10 03:21:53;;;;;;;6.53;2.33;;;25.70;41.20;;;;;;5041464;28;20191;-75
2022/03/10 03:24:20;;;;;;;7.30;1.93;;;25.30;41.40;;;;;;5050804;28;20608;-77
2022/03/10 03:26:49;;;;;;;8.87;2.43;;;25.70;42.20;;;;;;5048524;28;20258;-78
2022/03/10 03:29:16;;;;;;;7.17;2.00;;;25.80;41.10;;;;;;5051874;28;20203;-77
2022/03/10 03:31:44;;;;;;;5.50;2.63;;;25.90;41.20;;;;;;5049135;28;20212;-85
2022/03/10 03:34:11;;;;;;;6.63;2.20;;;26.30;40.30;;;;;;5044250;28;20212;-76
2022/03/10 03:36:40;;;;;;;9.47;3.43;;;26.10;39.60;;;;;;5050028;28;20187;-76
2022/03/10 03:39:08;;;;;;;9.23;2.03;;;26.30;40.00;;;;;;5051504;28;20186;-77
2022/03/10 03:41:36;;;;;;;6.97;2.10;;;26.10;39.40;;;;;;5051013;28;20188;-77
2022/03/10 03:44:04;;;;;;;6.23;1.60;;;26.00;39.10;;;;;;5048056;28;20245;-76
2022/03/10 03:46:32;;;;;;;4.83;1.70;;;26.30;39.90;;;;;;5049759;28;20646;-77
2022/03/10 03:48:59;;;;;;;6.43;1.87;;;26.00;40.10;;;;;;5039961;28;20278;-79
2022/03/10 03:51:26;;;;;;;7.97;1.90;;;26.10;39.80;;;;;;5044737;28;20670;-80
2022/03/10 03:53:55;;;;;;;11.73;2.17;;;26.60;39.30;;;;;;5045917;28;20226;-75
2022/03/10 03:56:23;;;;;;;5.83;1.53;;;26.60;39.20;;;;;;5047555;28;20180;-75
2022/03/10 03:58:50;;;;;;;12.03;2.20;;;27.20;38.80;;;;;;5049989;28;20503;-75
2022/03/10 04:01:18;;;;;;;6.73;2.07;;;26.80;39.40;;;;;;5047181;28;20188;-76
2022/03/10 04:03:45;;;;;;;10.17;1.90;;;26.40;39.60;;;;;;5048579;28;20203;-80
2022/03/10 04:06:12;;;;;;;6.80;1.60;;;26.60;39.80;;;;;;5044464;28;20220;-82
2022/03/10 04:08:40;;;;;;;7.90;1.87;;;26.30;41.10;;;;;;5041977;28;20186;-82
2022/03/10 04:11:07;;;;;;;10.30;1.97;;;25.80;41.50;;;;;;5043455;28;20200;-75
2022/03/10 04:13:34;;;;;;;7.00;1.70;;;26.30;41.20;;;;;;5050736;28;20196;-77
2022/03/10 04:16:02;;;;;;;6.70;1.73;;;26.80;40.40;;;;;;5051094;28;20704;-83
2022/03/10 04:18:29;;;;;;;5.93;1.70;;;26.80;39.70;;;;;;5051898;28;20272;-80
2022/03/10 04:20:59;;;;;;;8.57;2.17;;;27.00;39.60;;;;;;5051179;28;20264;-79
2022/03/10 04:23:26;;;;;;;7.53;1.77;;;26.10;40.90;;;;;;5054074;28;20690;-75
2022/03/10 04:25:54;;;;;;;7.57;1.90;;;25.50;41.50;;;;;;5053551;28;20597;-80
2022/03/10 04:28:24;;;;;;;7.23;1.57;;;25.50;41.60;;;;;;5052234;28;20646;-75
2022/03/10 04:30:52;;;;;;;5.93;1.50;;;25.30;41.90;;;;;;5049965;28;20706;-81
2022/03/10 04:33:19;;;;;;;6.57;1.70;;;25.60;42.00;;;;;;5053422;28;20200;-77
2022/03/10 04:35:48;;;;;;;6.47;1.47;;;25.80;40.60;;;;;;5054059;28;20630;-84
2022/03/10 04:38:15;;;;;;;4.63;1.47;;;25.50;40.60;;;;;;5053331;28;20259;-76
2022/03/10 04:40:43;;;;;;;7.97;1.63;;;25.10;41.20;;;;;;5053431;28;20684;-78
2022/03/10 04:43:10;;;;;;;11.27;1.43;;;24.80;41.40;;;;;;5052623;28;20180;-76
2022/03/10 04:45:37;;;;;;;4.30;1.10;;;24.70;40.80;;;;;;5053186;28;20229;-82
2022/03/10 04:48:06;;;;;;;7.27;1.70;;;24.80;40.60;;;;;;5053181;28;20255;-77
2022/03/10 04:50:34;;;;;;;8.57;1.53;;;24.80;41.40;;;;;;5050616;28;20204;-81
2022/03/10 04:53:02;;;;;;;7.33;1.43;;;25.30;40.40;;;;;;5052965;28;20180;-75
2022/03/10 04:55:30;;;;;;;14.27;4.10;;;25.30;39.60;;;;;;5052426;28;20184;-77
2022/03/10 04:57:58;;;;;;;9.83;2.23;;;25.60;39.10;;;;;;5044894;28;20545;-78
2022/03/10 05:00:25;;;;;;;7.23;2.50;;;26.30;38.00;;;;;;5053442;28;20215;-77
2022/03/10 05:02:52;;;;;;;5.83;1.70;;;27.00;37.10;;;;;;5048416;28;20710;-77
2022/03/10 05:05:20;;;;;;;7.60;1.70;;;27.50;36.10;;;;;;5047990;28;20214;-81
2022/03/10 05:07:47;;;;;;;6.83;2.03;;;27.80;34.50;;;;;;5050560;28;20184;-80
2022/03/10 05:10:15;;;;;;;7.00;1.50;;;27.60;36.00;;;;;;5049379;28;20241;-78
2022/03/10 05:12:51;;;;;;;6.55;1.38;;;27.70;36.10;;;;;;5048380;28;20219;-78
2022/03/10 05:15:19;;;;;;;6.83;1.90;;;27.40;35.90;;;;;;5051178;28;20268;-81
2022/03/10 05:17:47;;;;;;;6.30;1.57;;;28.00;35.90;;;;;;5052436;28;20650;-79
2022/03/10 05:20:15;;;;;;;7.80;1.37;;;28.50;34.70;;;;;;5047869;28;20183;-79
2022/03/10 05:22:53;;;;;;;6.30;1.23;;;28.50;34.10;;;;;;5047593;28;20373;-80
2022/03/10 05:25:22;;;;;;;8.50;1.42;;;27.90;36.30;;;;;;5050346;28;20226;-77
2022/03/10 05:27:50;;;;;;;6.37;1.30;;;28.00;35.60;;;;;;5047935;28;20191;-78
2022/03/10 05:30:20;;;;;;;6.97;1.47;;;28.30;35.30;;;;;;5039807;28;20216;-78
2022/03/10 05:32:47;;;;;;;8.25;2.65;;;27.70;37.00;;;;;;5039635;28;20208;-81
2022/03/10 05:35:17;;;;;;;8.43;2.03;;;27.80;36.80;;;;;;5037149;28;20210;-79
2022/03/10 05:37:46;;;;;;;5.53;1.20;;;27.20;37.70;;;;;;5042259;28;20241;-79
2022/03/10 05:40:16;;;;;;;9.10;1.70;;;26.20;39.10;;;;;;5048254;28;20296;-76
2022/03/10 05:42:45;;;;;;;6.43;1.43;;;25.70;40.90;;;;;;5049723;28;20252;-75
2022/03/10 05:45:14;;;;;;;5.93;1.93;;;24.80;42.00;;;;;;5040407;28;20180;-79
2022/03/10 05:47:42;;;;;;;9.17;1.73;;;25.10;41.10;;;;;;5044780;28;20333;-78
2022/03/10 05:50:10;;;;;;;2.80;1.23;;;25.70;39.40;;;;;;5042575;28;21000;-78
2022/03/10 05:52:38;;;;;;;6.63;1.63;;;26.40;38.10;;;;;;5047319;28;20204;-75
2022/03/10 05:55:06;;;;;;;5.67;1.40;;;26.80;36.90;;;;;;5051182;28;20278;-78
2022/03/10 05:57:34;;;;;;;4.20;1.00;;;26.80;37.60;;;;;;5054052;28;20231;-79
2022/03/10 06:00:01;;;;;;;8.60;1.37;;;28.30;36.00;;;;;;5053579;28;20180;-78
2022/03/10 06:02:29;;;;;;;4.45;1.33;;;28.30;35.30;;;;;;5036312;28;20172;-75
2022/03/10 06:05:00;;;;;;;10.07;1.77;;;28.30;35.40;;;;;;5050038;28;20200;-78
2022/03/10 06:07:29;;;;;;;4.72;1.45;;;27.90;36.20;;;;;;5049817;28;20236;-77
2022/03/10 06:09:57;;;;;;;10.97;2.13;;;28.30;36.20;;;;;;5048730;28;20229;-77
2022/03/10 06:12:27;;;;;;;8.97;1.60;;;26.10;39.40;;;;;;5053460;28;20246;-76
2022/03/10 06:15:04;;;;;;;8.50;1.70;;;26.30;40.50;;;;;;5052857;28;20183;-79
2022/03/10 06:17:31;;;;;;;6.23;1.50;;;26.90;39.10;;;;;;5052057;28;20194;-79
2022/03/10 06:19:59;;;;;;;4.57;1.20;;;27.30;37.60;;;;;;5044269;28;20272;-78
2022/03/10 06:22:31;;;;;;;7.87;1.83;;;27.70;37.40;;;;;;5045667;28;20191;-82
2022/03/10 06:25:00;;;;;;;4.43;1.10;;;27.50;38.10;;;;;;5043866;28;20207;-81
2022/03/10 06:27:27;;;;;;;8.67;2.30;;;27.60;37.20;;;;;;5032976;28;20594;-76
2022/03/10 06:29:55;;;;;;;5.50;1.52;;;27.80;37.00;;;;;;5032843;28;20268;-76
2022/03/10 06:32:24;;;;;;;4.43;1.03;;;26.80;37.70;;;;;;5049982;28;20216;-74
2022/03/10 06:34:54;;;;;;;5.80;1.20;;;25.60;40.80;;;;;;5043642;28;20193;-78
2022/03/10 06:37:21;;;;;;;7.40;1.90;;;24.60;43.00;;;;;;5044037;28;20569;-76
2022/03/10 06:39:48;;;;;;;8.13;1.80;;;24.00;44.60;;;;;;5052094;28;20279;-76
2022/03/10 06:42:16;;;;;;;9.93;1.50;;;23.80;45.10;;;;;;5052137;28;20188;-78
2022/03/10 06:44:44;;;;;;;6.63;1.93;;;23.70;45.10;;;;;;5033919;28;20176;-76
2022/03/10 06:47:12;;;;;;;7.57;1.57;;;23.50;45.60;;;;;;5046434;28;20270;-74
2022/03/10 06:49:40;;;;;;;12.70;2.30;;;23.70;46.40;;;;;;5036917;28;20173;-77
2022/03/10 06:52:11;;;;;;;7.90;2.20;;;23.50;47.50;;;;;;5039894;28;20200;-76
2022/03/10 06:54:39;;;;;;;5.93;1.40;;;23.30;47.90;;;;;;5050306;28;20325;-76
2022/03/10 06:57:08;;;;;;;9.10;1.97;;;23.00;48.60;;;;;;5052781;28;20183;-80
2022/03/10 06:59:35;;;;;;;12.93;1.90;;;22.80;49.50;;;;;;5048282;28;20172;-79
2022/03/10 07:02:03;;;;;;;5.43;1.53;;;22.80;49.70;;;;;;5047083;28;20266;-78
2022/03/10 07:04:33;;;;;;;7.17;1.67;;;22.90;50.10;;;;;;5048351;28;20172;-77
2022/03/10 07:07:00;;;;;;;6.23;1.53;;;22.80;49.70;;;;;;5044584;28;20709;-80
2022/03/10 07:09:32;;;;;;;8.03;2.00;;;22.70;48.50;;;;;;5039603;28;20176;-80
2022/03/10 07:12:00;;;;;;;7.70;1.90;;;22.80;48.30;;;;;;5049448;28;20215;-81
2022/03/10 07:14:27;;;;;;;6.87;2.00;;;23.00;48.30;;;;;;5041360;28;20173;-78
2022/03/10 07:16:55;;;;;;;12.17;2.47;;;22.90;47.90;;;;;;5040927;28;20196;-78
2022/03/10 07:19:22;;;;;;;8.30;1.27;;;23.00;48.20;;;;;;5046918;28;20630;-78
2022/03/10 07:21:49;;;;;;;6.37;1.40;;;23.50;46.20;;;;;;5037094;28;20784;-81
2022/03/10 07:24:17;;;;;;;6.80;1.47;;;23.30;45.00;;;;;;5049096;28;20627;-79
2022/03/10 07:26:44;;;;;;;7.10;1.67;;;23.40;46.40;;;;;;5051004;28;20251;-78
2022/03/10 07:29:12;;;;;;;7.57;1.60;;;23.00;47.60;;;;;;5043845;28;20184;-80
2022/03/10 07:31:39;;;;;;;4.47;1.53;;;22.50;49.90;;;;;;5043779;28;20204;-78
2022/03/10 07:34:06;;;;;;;6.37;1.37;;;22.30;50.70;;;;;;5042493;28;20661;-82
2022/03/10 07:36:34;;;;;;;9.03;2.47;;;22.10;49.30;;;;;;5050356;28;20184;-83
2022/03/10 07:39:01;;;;;;;7.27;1.77;;;21.90;51.30;;;;;;5050616;28;20171;-77
2022/03/10 07:41:28;;;;;;;10.53;2.03;;;22.10;51.00;;;;;;5038906;28;20180;-80
2022/03/10 07:43:56;;;;;;;9.03;1.80;;;21.70;51.60;;;;;;5047675;28;20176;-81
2022/03/10 07:46:24;;;;;;;10.57;2.07;;;21.60;52.30;;;;;;5035601;28;20332;-79
2022/03/10 07:48:52;;;;;;;8.60;1.90;;;21.50;52.20;;;;;;5052645;28;21037;-78
2022/03/10 07:51:21;;;;;;;9.90;1.93;;;21.60;52.70;;;;;;5050203;28;20203;-82
2022/03/10 07:53:48;;;;;;;10.07;2.03;;;21.50;53.20;;;;;;5037630;28;20219;-78
2022/03/10 07:56:16;;;;;;;7.33;1.77;;;21.50;54.00;;;;;;5040806;28;20179;-82
2022/03/10 07:58:44;;;;;;;7.50;2.10;;;21.60;54.40;;;;;;5054014;28;20220;-80
2022/03/10 08:01:11;;;;;;;9.40;2.03;;;21.50;54.50;;;;;;5036955;28;20180;-79
2022/03/10 08:03:39;;;;;;;3.77;1.30;;;21.50;55.30;;;;;;5043172;28;20188;-79
2022/03/10 08:06:07;;;;;;;7.00;1.50;;;21.40;56.40;;;;;;5055524;28;20234;-79
2022/03/10 08:08:35;;;;;;;10.67;1.43;;;21.30;57.20;;;;;;5048839;28;20234;-76
2022/03/10 08:11:03;;;;;;;12.07;1.63;;;21.30;57.90;;;;;;5036759;28;20196;-78
2022/03/10 08:13:31;;;;;;;4.13;1.33;;;21.30;57.50;;;;;;5037725;28;20577;-77
2022/03/10 08:15:59;;;;;;;3.77;1.40;;;21.30;57.00;;;;;;5051822;28;20179;-79
2022/03/10 08:18:28;;;;;;;3.93;1.40;;;21.30;57.20;;;;;;5049970;28;20184;-78
2022/03/10 08:20:57;;;;;;;5.90;1.90;;;21.30;56.50;;;;;;5047231;28;20187;-81
2022/03/10 08:23:25;;;;;;;7.97;1.93;;;21.30;56.10;;;;;;5048434;28;20180;-84
2022/03/10 08:25:53;;;;;;;7.43;1.50;;;21.30;56.70;;;;;;5049526;28;20180;-77
2022/03/10 08:28:20;;;;;;;5.20;1.70;;;21.30;56.40;;;;;;5055513;28;20225;-80
2022/03/10 08:30:48;;;;;;;8.17;1.50;;;21.20;56.50;;;;;;5052067;28;20175;-80
2022/03/10 08:33:15;;;;;;;6.93;1.57;;;21.20;56.60;;;;;;5052129;28;20286;-80
2022/03/10 08:35:43;;;;;;;7.13;1.20;;;21.20;57.10;;;;;;5054336;28;20527;-86
2022/03/10 08:38:11;;;;;;;14.60;1.57;;;21.10;58.20;;;;;;5055479;28;20164;-80
2022/03/10 08:40:38;;;;;;;7.23;1.30;;;21.10;59.00;;;;;;5054587;28;20168;-79
2022/03/10 08:43:08;;;;;;;5.43;1.47;;;21.00;58.90;;;;;;5051743;28;20184;-78
2022/03/10 08:45:37;;;;;;;7.07;1.43;;;21.10;59.30;;;;;;5037701;28;20216;-79
2022/03/10 08:48:05;;;;;;;8.80;1.47;;;21.10;59.40;;;;;;5052755;28;20522;-86
2022/03/10 08:50:33;;;;;;;4.30;1.57;;;21.10;59.40;;;;;;5053353;28;20177;-82
2022/03/10 08:53:00;;;;;;;3.67;1.30;;;21.10;59.30;;;;;;5053095;28;20214;-82
2022/03/10 08:55:28;;;;;;;5.67;1.70;;;21.10;58.70;;;;;;5040597;28;20537;-81
2022/03/10 08:57:55;;;;;;;4.20;1.47;;;21.10;58.60;;;;;;5036079;28;20187;-80
2022/03/10 09:00:23;;;;;;;10.20;1.53;;;21.00;59.00;;;;;;5038140;28;20184;-83
2022/03/10 09:02:50;;;;;;;7.60;1.40;;;20.90;58.30;;;;;;5042561;28;20176;-85
2022/03/10 09:05:18;;;;;;;6.27;1.50;;;21.00;58.30;;;;;;5053051;28;20534;-82
2022/03/10 09:07:45;;;;;;;13.17;2.17;;;21.00;59.00;;;;;;5053630;28;20188;-81
2022/03/10 09:10:12;;;;;;;8.67;1.93;;;21.00;59.70;;;;;;5046165;28;20181;-83
2022/03/10 09:12:41;;;;;;;10.10;1.47;;;21.00;60.30;;;;;;5042992;28;20208;-76
2022/03/10 09:15:09;;;;;;;6.23;1.50;;;20.90;60.10;;;;;;5054768;28;20257;-84
2022/03/10 09:17:37;;;;;;;6.23;1.90;;;21.00;60.20;;;;;;5054352;28;20176;-83
2022/03/10 09:20:05;;;;;;;7.60;1.50;;;21.00;60.20;;;;;;5054550;28;20251;-84
2022/03/10 09:22:32;;;;;;;8.00;1.83;;;21.00;60.20;;;;;;5054050;28;20180;-80
2022/03/10 09:25:02;;;;;;;6.60;1.40;;;21.00;60.10;;;;;;5038373;28;20255;-83
2022/03/10 09:27:30;;;;;;;3.60;1.10;;;20.90;60.50;;;;;;5050949;28;20180;-86
2022/03/10 09:29:58;;;;;;;6.57;2.00;;;21.00;60.30;;;;;;5053450;28;20226;-83
2022/03/10 09:32:25;;;;;;;4.43;1.20;;;20.90;60.60;;;;;;5047698;28;20200;-84
2022/03/10 09:34:53;;;;;;;10.03;1.50;;;20.90;61.00;;;;;;5053473;28;20585;-81
2022/03/10 09:37:20;;;;;;;5.73;1.37;;;20.80;61.00;;;;;;5053979;28;20243;-81
2022/03/10 09:39:47;;;;;;;9.87;1.30;;;20.80;61.30;;;;;;5050727;28;20179;-82
2022/03/10 09:42:18;;;;;;;8.20;1.50;;;20.80;61.80;;;;;;5054188;28;20175;-80
2022/03/10 09:44:47;;;;;;;7.33;1.40;;;20.80;62.00;;;;;;5039136;28;20242;-80
2022/03/10 09:47:15;;;;;;;4.23;1.23;;;20.80;61.70;;;;;;5040901;28;20183;-80
2022/03/10 09:49:43;;;;;;;8.97;1.53;;;20.80;61.80;;;;;;5051104;28;20634;-77
2022/03/10 09:52:12;;;;;;;5.87;1.80;;;20.80;62.10;;;;;;5053342;28;20256;-82
2022/03/10 09:54:40;;;;;;;7.50;1.57;;;20.80;61.70;;;;;;5052866;28;20168;-84
2022/03/10 09:57:09;;;;;;;16.33;6.30;;;20.80;62.00;;;;;;5053741;28;20314;-82
2022/03/10 09:59:51;;;;;;;8.00;2.37;;;20.80;62.10;;;;;;5048414;28;20245;-85
2022/03/10 10:02:19;;;;;;;7.80;1.80;;;20.80;62.20;;;;;;5049582;28;20211;-84
2022/03/10 10:04:48;;;;;;;6.67;1.60;;;20.70;62.40;;;;;;5037272;28;20196;-82
2022/03/10 10:07:19;;;;;;;8.80;2.00;;;20.80;62.60;;;;;;5037164;28;20264;-84
2022/03/10 10:09:53;;;;;;;6.37;1.50;;;20.70;62.40;;;;;;5051919;28;20640;-83
2022/03/10 10:12:24;;;;;;;6.57;1.70;;;20.80;63.20;;;;;;5052575;28;20199;-79
2022/03/10 10:14:52;;;;;;;8.37;1.50;;;20.70;63.00;;;;;;5053034;28;20180;-84
2022/03/10 10:17:33;;;;;;;4.43;1.67;;;20.70;62.60;;;;;;5048093;28;20200;-87
2022/03/10 10:20:01;;;;;;;9.47;1.90;;;20.70;63.20;;;;;;5053129;28;20539;-83
2022/03/10 10:22:30;;;;;;;7.50;1.43;;;20.60;63.10;;;;;;5052070;28;20180;-80
2022/03/10 10:24:59;;;;;;;5.33;1.57;;;20.70;63.20;;;;;;5032268;28;20168;-81
2022/03/10 10:27:34;;;;;;;6.03;1.60;;;20.60;63.00;;;;;;5035153;28;20192;-83
2022/03/10 10:30:06;;;;;;;12.47;1.97;;;20.70;63.20;;;;;;5033101;28;20168;-81
2022/03/10 10:32:52;;;;;;;8.40;1.47;;;20.70;63.00;;;;;;5045685;28;20302;-80
2022/03/10 10:35:23;;;;;;;12.00;2.13;;;20.70;63.50;;;;;;5038570;28;20601;-83
2022/03/10 10:37:54;;;;;;;9.90;1.87;;;20.60;63.20;;;;;;5046508;28;20180;-80
2022/03/10 10:40:26;;;;;;;7.43;2.07;;;20.60;63.50;;;;;;5032523;28;20204;-82
2022/03/10 10:42:54;;;;;;;7.40;1.97;;;20.60;63.50;;;;;;5051824;28;20215;-76
2022/03/10 10:45:37;;;;;;;4.27;1.40;;;20.60;63.70;;;;;;5043791;28;20191;-81
2022/03/10 10:48:09;;;;;;;9.93;1.97;;;20.50;63.60;;;;;;5051689;28;20259;-81
2022/03/10 10:50:39;;;;;;;10.77;1.90;;;20.50;63.60;;;;;;5050800;28;20646;-81
2022/03/10 10:53:08;;;;;;;6.83;1.70;;;20.60;63.30;;;;;;5050478;28;20693;-82
2022/03/10 10:55:42;;;;;;;8.47;2.17;;;20.50;63.60;;;;;;5040109;28;20568;-79
2022/03/10 10:58:17;;;;;;;10.03;1.77;;;20.60;63.80;;;;;;5052170;28;20187;-83
2022/03/10 11:00:49;;;;;;;8.40;1.77;;;20.50;63.50;;;;;;5034408;28;20180;-83
2022/03/10 11:03:28;;;;;;;10.27;1.97;;;20.50;63.70;;;;;;5043833;28;20245;-84
2022/03/10 11:05:56;;;;;;;10.40;2.27;;;20.50;64.40;;;;;;5050387;28;20231;-82
2022/03/10 11:08:25;;;;;;;11.43;1.93;;;20.50;64.40;;;;;;5033020;28;20298;-81
2022/03/10 11:10:53;;;;;;;9.53;1.87;;;20.50;64.20;;;;;;5051516;28;20268;-84
2022/03/10 11:13:22;;;;;;;7.73;2.10;;;20.50;63.90;;;;;;5036609;28;20184;-81
2022/03/10 11:15:51;;;;;;;6.33;1.80;;;20.40;64.50;;;;;;5049002;28;20180;-80
2022/03/10 11:18:22;;;;;;;6.10;1.90;;;20.40;65.20;;;;;;5042819;28;20206;-80
2022/03/10 11:20:57;;;;;;;9.80;1.97;;;20.40;64.50;;;;;;5053440;28;20202;-79
2022/03/10 11:23:57;;;;;;;10.10;2.13;;;20.40;64.60;;;;;;5057873;28;21955;-78
2022/03/10 11:26:34;;;;;;;12.17;1.87;;;20.30;64.60;;;;;;5055084;28;20179;-80
2022/03/10 11:29:02;;;;;;;7.87;1.87;;;20.30;65.00;;;;;;5040989;28;20192;-86
2022/03/10 11:31:33;;;;;;;6.57;1.90;;;20.30;65.50;;;;;;5055276;28;20239;-78
2022/03/10 11:34:00;;;;;;;8.03;2.23;;;20.30;65.50;;;;;;5051805;28;20229;-80
2022/03/10 11:36:30;;;;;;;13.87;2.23;;;20.30;65.60;;;;;;5056676;28;20176;-78
2022/03/10 11:39:06;;;;;;;6.77;1.93;;;20.20;65.70;;;;;;5055079;28;20178;-80
2022/03/10 11:41:47;;;;;;;7.67;2.03;;;20.20;65.70;;;;;;5048881;28;20259;-80
2022/03/10 11:44:19;;;;;;;15.87;2.73;;;20.20;65.60;;;;;;5056058;28;20172;-80
2022/03/10 11:46:55;;;;;;;14.97;1.80;;;20.20;65.80;;;;;;5055893;28;20317;-78
2022/03/10 11:49:26;;;;;;;14.00;2.33;;;20.20;66.00;;;;;;5045620;28;20206;-78
2022/03/10 11:51:56;;;;;;;8.63;2.33;;;20.20;65.10;;;;;;5055727;28;20215;-81
2022/03/10 11:54:30;;;;;;;9.60;2.03;;;20.30;65.40;;;;;;5050565;28;20699;-78
2022/03/10 11:57:03;;;;;;;8.40;2.10;;;20.30;65.50;;;;;;5035857;28;20176;-79
2022/03/10 11:59:37;;;;;;;10.37;1.93;;;20.30;65.20;;;;;;5035982;28;20179;-81
2022/03/10 12:02:05;;;;;;;14.17;2.17;;;20.20;65.40;;;;;;5035727;28;20229;-81
2022/03/10 12:04:37;;;;;;;6.20;1.83;;;20.30;65.20;;;;;;5049396;28;20180;-79
2022/03/10 12:07:08;;;;;;;10.53;2.00;;;20.20;65.50;;;;;;5051126;28;20299;-80
2022/03/10 12:09:41;;;;;;;13.30;2.10;;;20.20;64.90;;;;;;5054134;28;20188;-80
2022/03/10 12:12:16;;;;;;;9.10;1.80;;;20.20;65.30;;;;;;5055965;28;20310;-81
2022/03/10 12:14:44;;;;;;;6.17;1.87;;;20.20;64.60;;;;;;5053848;28;20254;-80
2022/03/10 12:17:45;;;;;;;7.43;1.63;;;20.20;64.80;;;;;;5041649;28;20234;-78
2022/03/10 12:20:15;;;;;;;8.30;2.27;;;20.20;64.50;;;;;;5047576;28;20237;-78
2022/03/10 12:23:15;;;;;;;8.73;2.20;;;20.30;64.50;;;;;;5052888;28;20178;-78
2022/03/10 12:25:52;;;;;;;7.83;1.30;;;20.30;64.00;;;;;;5031576;28;20200;-78
2022/03/10 12:28:32;;;;;;;10.33;2.13;;;20.30;64.10;;;;;;5051554;28;20186;-78
2022/03/10 12:31:19;;;;;;;8.03;2.07;;;20.30;64.60;;;;;;5054429;28;20661;-79
2022/03/10 12:33:52;;;;;;;10.40;1.93;;;20.30;64.50;;;;;;5054698;28;20187;-78
2022/03/10 12:36:37;;;;;;;8.67;2.10;;;20.20;64.90;;;;;;5055240;28;20257;-80
2022/03/10 12:39:15;;;;;;;8.77;2.17;;;20.10;65.70;;;;;;5055004;28;20589;-79
2022/03/10 12:41:51;;;;;;;7.03;1.73;;;20.00;65.70;;;;;;5055137;28;20180;-79
2022/03/10 12:44:23;;;;;;;8.40;1.87;;;20.00;66.30;;;;;;5052947;28;20176;-79
2022/03/10 12:46:53;;;;;;;11.87;2.23;;;19.90;67.10;;;;;;5035447;28;20679;-80
2022/03/10 12:49:48;;;;;;;10.63;2.00;;;19.80;67.30;;;;;;5046885;28;20183;-78
2022/03/10 12:52:17;;;;;;;9.53;1.83;;;19.80;67.60;;;;;;5053570;28;20214;-80
2022/03/10 12:54:47;;;;;;;10.83;2.23;;;19.80;67.60;;;;;;5053609;28;20164;-78
2022/03/10 12:57:14;;;;;;;10.17;2.07;;;19.80;68.00;;;;;;5053173;28;20187;-80
2022/03/10 12:59:43;;;;;;;10.90;1.93;;;19.80;68.30;;;;;;5054432;28;20183;-80